createdAt,value
2017-09-15T00:00:26.589Z,0.00
2017-09-15T00:01:26.584Z,0.00
2017-09-15T00:02:26.592Z,0.00
2017-09-15T00:03:26.581Z,0.00
2017-09-15T00:04:26.576Z,0.00
2017-09-15T00:05:26.580Z,0.00
2017-09-15T00:06:26.572Z,0.00
2017-09-15T00:07:26.577Z,0.00
2017-09-15T00:08:26.578Z,0.00
2017-09-15T00:09:26.573Z,0.00
2017-09-15T00:10:26.575Z,0.00
2017-09-15T00:11:26.573Z,0.00
2017-09-15T00:12:26.571Z,0.00
2017-09-15T00:13:26.570Z,0.00
2017-09-15T00:14:26.569Z,0.00
2017-09-15T00:15:26.566Z,0.00
2017-09-15T00:16:26.565Z,0.00
2017-09-15T00:17:26.563Z,0.00
2017-09-15T00:18:26.563Z,0.00
2017-09-15T00:19:26.574Z,0.00
2017-09-15T00:20:26.565Z,0.00
2017-09-15T00:21:26.561Z,0.00
2017-09-15T00:22:26.557Z,0.00
2017-09-15T00:23:26.556Z,0.00
2017-09-15T00:24:26.553Z,0.00
2017-09-15T00:25:26.554Z,0.00
2017-09-15T00:26:26.553Z,0.00
2017-09-15T00:27:26.554Z,0.00
2017-09-15T00:28:26.553Z,0.00
2017-09-15T00:29:26.551Z,0.00
2017-09-15T00:30:26.549Z,0.00
2017-09-15T00:31:26.550Z,0.00
2017-09-15T00:32:26.562Z,0.00
2017-09-15T00:33:26.544Z,0.00
2017-09-15T00:34:26.558Z,0.00
2017-09-15T00:35:26.542Z,0.00
2017-09-15T00:36:26.542Z,0.00
2017-09-15T00:37:26.543Z,0.00
2017-09-15T00:38:26.538Z,0.00
2017-09-15T00:39:26.551Z,0.00
2017-09-15T00:40:26.540Z,0.00
2017-09-15T00:41:26.537Z,0.00
2017-09-15T00:42:26.533Z,0.00
2017-09-15T00:43:26.536Z,0.00
2017-09-15T00:44:26.533Z,0.00
2017-09-15T00:45:26.530Z,0.00
2017-09-15T00:46:26.529Z,0.00
2017-09-15T00:47:26.535Z,0.00
2017-09-15T00:48:26.534Z,0.00
2017-09-15T00:49:26.524Z,0.00
2017-09-15T00:50:26.538Z,0.00
2017-09-15T00:51:26.523Z,0.00
2017-09-15T00:52:26.538Z,0.00
2017-09-15T00:53:26.521Z,0.00
2017-09-15T00:54:26.519Z,0.00
2017-09-15T00:55:26.529Z,0.00
2017-09-15T00:56:26.518Z,0.00
2017-09-15T00:57:26.518Z,0.00
2017-09-15T00:58:26.514Z,0.00
2017-09-15T00:59:26.516Z,0.00
2017-09-15T01:00:26.515Z,0.00
2017-09-15T01:01:26.672Z,0.00
2017-09-15T01:02:26.510Z,0.00
2017-09-15T01:03:26.511Z,0.00
2017-09-15T01:04:26.547Z,0.00
2017-09-15T01:05:26.532Z,0.00
2017-09-15T01:06:26.514Z,0.00
2017-09-15T01:07:26.506Z,0.00
2017-09-15T01:08:26.503Z,0.00
2017-09-15T01:09:26.505Z,0.00
2017-09-15T01:10:26.507Z,0.00
2017-09-15T01:11:26.505Z,0.00
2017-09-15T01:12:26.506Z,0.00
2017-09-15T01:13:26.507Z,0.00
2017-09-15T01:14:26.501Z,0.00
2017-09-15T01:15:26.500Z,0.00
2017-09-15T01:16:26.499Z,0.00
2017-09-15T01:17:26.499Z,0.00
2017-09-15T01:18:26.496Z,0.00
2017-09-15T01:19:26.494Z,0.00
2017-09-15T01:20:26.499Z,0.00
2017-09-15T01:21:26.494Z,0.00
2017-09-15T01:22:26.496Z,0.00
2017-09-15T01:23:26.494Z,0.00
2017-09-15T01:24:26.494Z,0.00
2017-09-15T01:25:26.490Z,0.00
2017-09-15T01:26:26.491Z,0.00
2017-09-15T01:27:26.493Z,0.00
2017-09-15T01:28:26.488Z,0.00
2017-09-15T01:29:26.488Z,0.00
2017-09-15T01:30:26.492Z,0.00
2017-09-15T01:31:26.499Z,0.00
2017-09-15T01:32:26.485Z,0.00
2017-09-15T01:33:26.486Z,0.00
2017-09-15T01:34:26.482Z,0.00
2017-09-15T01:35:26.484Z,0.00
2017-09-15T01:36:26.479Z,0.00
2017-09-15T01:37:26.476Z,0.00
2017-09-15T01:38:26.495Z,0.00
2017-09-15T01:39:26.481Z,0.00
2017-09-15T01:40:26.482Z,0.00
2017-09-15T01:41:26.478Z,0.00
2017-09-15T01:42:26.478Z,0.00
2017-09-15T01:43:26.476Z,0.00
2017-09-15T01:44:26.474Z,0.00
2017-09-15T01:45:26.476Z,0.00
2017-09-15T01:46:26.470Z,0.00
2017-09-15T01:47:26.471Z,0.00
2017-09-15T01:48:26.484Z,0.00
2017-09-15T01:49:26.472Z,0.00
2017-09-15T01:50:26.472Z,0.00
2017-09-15T01:51:26.471Z,0.00
2017-09-15T01:52:26.471Z,0.00
2017-09-15T01:53:26.469Z,0.00
2017-09-15T01:54:26.468Z,0.00
2017-09-15T01:55:26.467Z,0.00
2017-09-15T01:56:26.468Z,0.00
2017-09-15T01:57:26.466Z,0.00
2017-09-15T01:58:26.464Z,0.00
2017-09-15T01:59:26.463Z,0.00
2017-09-15T02:00:26.482Z,0.00
2017-09-15T02:01:26.466Z,0.00
2017-09-15T02:02:26.462Z,0.00
2017-09-15T02:03:26.462Z,0.00
2017-09-15T02:04:26.461Z,0.00
2017-09-15T02:05:26.460Z,0.00
2017-09-15T02:06:26.459Z,0.00
2017-09-15T02:07:26.460Z,0.00
2017-09-15T02:08:26.457Z,0.00
2017-09-15T02:09:26.459Z,0.00
2017-09-15T02:10:26.459Z,0.00
2017-09-15T02:11:26.456Z,0.00
2017-09-15T02:12:26.455Z,0.00
2017-09-15T02:13:26.455Z,0.00
2017-09-15T02:14:26.455Z,0.00
2017-09-15T02:15:26.454Z,0.00
2017-09-15T02:16:26.448Z,0.00
2017-09-15T02:17:26.451Z,0.00
2017-09-15T02:18:26.450Z,0.00
2017-09-15T02:19:26.450Z,0.00
2017-09-15T02:20:26.456Z,0.00
2017-09-15T02:21:26.448Z,0.00
2017-09-15T02:22:26.447Z,0.00
2017-09-15T02:23:26.446Z,0.00
2017-09-15T02:24:26.448Z,0.00
2017-09-15T02:25:26.443Z,0.00
2017-09-15T02:26:26.447Z,0.00
2017-09-15T02:27:26.446Z,0.00
2017-09-15T02:28:26.446Z,0.00
2017-09-15T02:29:26.441Z,0.00
2017-09-15T02:30:26.442Z,0.00
2017-09-15T02:31:26.442Z,0.00
2017-09-15T02:32:26.440Z,0.00
2017-09-15T02:33:26.441Z,0.00
2017-09-15T02:34:26.441Z,0.00
2017-09-15T02:35:26.439Z,0.00
2017-09-15T02:36:26.438Z,0.00
2017-09-15T02:37:26.439Z,0.00
2017-09-15T02:38:26.434Z,0.00
2017-09-15T02:39:26.438Z,0.00
2017-09-15T02:40:26.440Z,0.00
2017-09-15T02:41:26.437Z,0.00
2017-09-15T02:42:26.431Z,0.00
2017-09-15T02:43:26.434Z,0.00
2017-09-15T02:44:26.436Z,0.00
2017-09-15T02:45:26.446Z,0.00
2017-09-15T02:46:26.432Z,0.00
2017-09-15T02:47:26.433Z,0.00
2017-09-15T02:48:26.433Z,0.00
2017-09-15T02:49:26.431Z,0.00
2017-09-15T02:50:26.431Z,0.00
2017-09-15T02:51:26.427Z,0.00
2017-09-15T02:52:26.496Z,0.00
2017-09-15T02:53:26.431Z,0.00
2017-09-15T02:54:26.429Z,0.00
2017-09-15T02:55:26.431Z,0.00
2017-09-15T02:56:26.428Z,0.00
2017-09-15T02:57:26.426Z,0.00
2017-09-15T02:58:26.427Z,0.00
2017-09-15T02:59:26.424Z,0.00
2017-09-15T03:00:26.431Z,0.00
2017-09-15T03:01:26.425Z,0.00
2017-09-15T03:02:26.420Z,0.00
2017-09-15T03:03:26.424Z,0.00
2017-09-15T03:04:26.423Z,0.00
2017-09-15T03:05:26.422Z,0.00
2017-09-15T03:06:26.419Z,0.00
2017-09-15T03:07:26.421Z,0.00
2017-09-15T03:08:26.420Z,0.00
2017-09-15T03:09:26.419Z,0.00
2017-09-15T03:10:26.420Z,0.00
2017-09-15T03:11:26.421Z,0.00
2017-09-15T03:12:26.416Z,0.00
2017-09-15T03:13:26.420Z,0.00
2017-09-15T03:14:26.421Z,0.00
2017-09-15T03:15:26.416Z,0.00
2017-09-15T03:16:26.420Z,0.00
2017-09-15T03:17:26.416Z,0.00
2017-09-15T03:18:26.414Z,0.00
2017-09-15T03:19:26.414Z,0.00
2017-09-15T03:20:26.431Z,0.00
2017-09-15T03:21:26.410Z,0.00
2017-09-15T03:22:26.412Z,0.00
2017-09-15T03:23:26.414Z,0.00
2017-09-15T03:24:26.451Z,0.00
2017-09-15T03:25:26.412Z,0.00
2017-09-15T03:26:26.411Z,0.00
2017-09-15T03:27:26.413Z,0.00
2017-09-15T03:28:26.411Z,0.00
2017-09-15T03:29:26.404Z,0.00
2017-09-15T03:30:26.409Z,0.00
2017-09-15T03:31:26.414Z,0.00
2017-09-15T03:32:26.409Z,0.00
2017-09-15T03:33:26.407Z,0.00
2017-09-15T03:34:26.407Z,0.00
2017-09-15T03:35:26.401Z,0.00
2017-09-15T03:36:26.407Z,0.00
2017-09-15T03:37:26.407Z,0.00
2017-09-15T03:38:26.408Z,0.00
2017-09-15T03:39:26.409Z,0.00
2017-09-15T03:40:26.409Z,0.00
2017-09-15T03:41:26.406Z,0.00
2017-09-15T03:42:26.407Z,0.00
2017-09-15T03:43:26.403Z,0.00
2017-09-15T03:44:26.408Z,0.00
2017-09-15T03:45:26.400Z,0.00
2017-09-15T03:46:26.404Z,0.00
2017-09-15T03:47:26.402Z,0.00
2017-09-15T03:48:26.400Z,0.00
2017-09-15T03:49:26.403Z,0.00
2017-09-15T03:50:26.400Z,0.00
2017-09-15T03:51:26.401Z,0.00
2017-09-15T03:52:26.400Z,0.00
2017-09-15T03:53:26.399Z,0.00
2017-09-15T03:54:26.399Z,0.00
2017-09-15T03:55:26.407Z,0.00
2017-09-15T03:56:26.397Z,0.00
2017-09-15T03:57:26.396Z,0.00
2017-09-15T03:58:26.396Z,0.00
2017-09-15T03:59:26.394Z,0.00
2017-09-15T04:00:26.398Z,0.00
2017-09-15T04:01:26.392Z,0.00
2017-09-15T04:02:26.396Z,0.00
2017-09-15T04:03:26.401Z,0.00
2017-09-15T04:04:26.395Z,0.00
2017-09-15T04:05:26.394Z,0.00
2017-09-15T04:06:26.394Z,0.00
2017-09-15T04:07:26.394Z,0.00
2017-09-15T04:08:26.392Z,0.00
2017-09-15T04:09:26.391Z,0.00
2017-09-15T04:10:26.391Z,0.00
2017-09-15T04:11:26.391Z,0.00
2017-09-15T04:12:26.389Z,0.00
2017-09-15T04:13:26.390Z,0.00
2017-09-15T04:14:26.392Z,0.00
2017-09-15T04:15:26.392Z,0.00
2017-09-15T04:16:26.392Z,0.00
2017-09-15T04:17:26.388Z,0.00
2017-09-15T04:18:26.388Z,0.00
2017-09-15T04:19:26.388Z,0.00
2017-09-15T04:20:26.387Z,0.00
2017-09-15T04:21:26.387Z,0.00
2017-09-15T04:22:26.387Z,0.00
2017-09-15T04:23:26.387Z,0.00
2017-09-15T04:24:26.386Z,0.00
2017-09-15T04:25:26.386Z,0.00
2017-09-15T04:26:26.384Z,0.00
2017-09-15T04:27:26.384Z,0.00
2017-09-15T04:28:26.385Z,0.00
2017-09-15T04:29:26.380Z,0.00
2017-09-15T04:30:26.383Z,0.00
2017-09-15T04:31:26.386Z,0.00
2017-09-15T04:32:26.382Z,0.00
2017-09-15T04:33:26.384Z,0.00
2017-09-15T04:34:26.382Z,0.00
2017-09-15T04:35:26.379Z,0.00
2017-09-15T04:36:26.386Z,0.00
2017-09-15T04:37:26.380Z,0.00
2017-09-15T04:38:26.401Z,0.00
2017-09-15T04:39:26.379Z,0.00
2017-09-15T04:40:26.380Z,0.00
2017-09-15T04:41:26.380Z,0.00
2017-09-15T04:42:26.379Z,0.00
2017-09-15T04:43:26.382Z,0.00
2017-09-15T04:44:26.378Z,5.63
2017-09-15T04:45:26.377Z,5.63
2017-09-15T04:46:26.378Z,5.63
2017-09-15T04:47:26.376Z,5.63
2017-09-15T04:48:26.377Z,5.63
2017-09-15T04:49:26.375Z,5.63
2017-09-15T04:50:26.381Z,11.25
2017-09-15T04:51:26.377Z,11.25
2017-09-15T04:52:26.379Z,16.88
2017-09-15T04:53:26.375Z,16.88
2017-09-15T04:54:26.375Z,11.25
2017-09-15T04:55:26.374Z,11.25
2017-09-15T04:56:26.374Z,11.25
2017-09-15T04:57:26.375Z,11.25
2017-09-15T04:58:26.372Z,16.88
2017-09-15T04:59:26.374Z,16.88
2017-09-15T05:00:26.372Z,16.88
2017-09-15T05:01:26.376Z,16.88
2017-09-15T05:02:26.375Z,22.50
2017-09-15T05:03:26.375Z,28.13
2017-09-15T05:04:26.373Z,28.13
2017-09-15T05:05:26.375Z,28.13
2017-09-15T05:06:26.370Z,28.13
2017-09-15T05:07:26.371Z,28.13
2017-09-15T05:08:26.371Z,28.13
2017-09-15T05:09:26.370Z,28.13
2017-09-15T05:10:26.370Z,39.38
2017-09-15T05:11:26.369Z,45.00
2017-09-15T05:12:26.368Z,50.63
2017-09-15T05:13:26.369Z,45.00
2017-09-15T05:14:26.371Z,33.75
2017-09-15T05:15:26.369Z,33.75
2017-09-15T05:16:26.367Z,33.75
2017-09-15T05:17:26.371Z,33.75
2017-09-15T05:18:26.367Z,39.38
2017-09-15T05:19:26.373Z,50.63
2017-09-15T05:20:26.368Z,61.88
2017-09-15T05:21:26.371Z,78.75
2017-09-15T05:22:26.368Z,84.38
2017-09-15T05:23:26.367Z,90.00
2017-09-15T05:24:26.365Z,101.25
2017-09-15T05:25:26.380Z,112.50
2017-09-15T05:26:26.367Z,118.13
2017-09-15T05:27:26.365Z,112.50
2017-09-15T05:28:26.367Z,112.50
2017-09-15T05:29:26.364Z,118.13
2017-09-15T05:30:26.366Z,123.75
2017-09-15T05:31:26.368Z,123.75
2017-09-15T05:32:26.367Z,129.38
2017-09-15T05:33:26.365Z,123.75
2017-09-15T05:34:26.383Z,123.75
2017-09-15T05:35:26.365Z,123.75
2017-09-15T05:36:26.369Z,118.13
2017-09-15T05:37:26.364Z,129.38
2017-09-15T05:38:26.365Z,135.00
2017-09-15T05:39:26.365Z,146.25
2017-09-15T05:40:26.366Z,140.63
2017-09-15T05:41:26.367Z,146.25
2017-09-15T05:42:26.363Z,146.25
2017-09-15T05:43:26.365Z,140.63
2017-09-15T05:44:26.364Z,146.25
2017-09-15T05:45:26.365Z,146.25
2017-09-15T05:46:26.366Z,151.88
2017-09-15T05:47:26.366Z,151.88
2017-09-15T05:48:26.364Z,151.88
2017-09-15T05:49:26.364Z,157.50
2017-09-15T05:50:26.368Z,163.13
2017-09-15T05:51:26.370Z,163.13
2017-09-15T05:52:26.363Z,163.13
2017-09-15T05:53:26.364Z,157.50
2017-09-15T05:54:26.364Z,140.63
2017-09-15T05:55:26.363Z,129.38
2017-09-15T05:56:26.363Z,112.50
2017-09-15T05:57:26.365Z,106.88
2017-09-15T05:58:26.364Z,101.25
2017-09-15T05:59:26.365Z,106.88
2017-09-15T06:00:26.360Z,151.88
2017-09-15T06:01:26.367Z,191.25
2017-09-15T06:02:26.363Z,208.13
2017-09-15T06:03:26.366Z,208.13
2017-09-15T06:04:26.367Z,196.88
2017-09-15T06:05:26.367Z,180.00
2017-09-15T06:06:26.368Z,163.13
2017-09-15T06:07:26.365Z,163.13
2017-09-15T06:08:26.368Z,180.00
2017-09-15T06:09:26.366Z,219.38
2017-09-15T06:10:26.368Z,258.75
2017-09-15T06:11:26.371Z,264.38
2017-09-15T06:12:26.368Z,275.63
2017-09-15T06:13:26.372Z,275.63
2017-09-15T06:14:26.369Z,258.75
2017-09-15T06:15:26.369Z,236.25
2017-09-15T06:16:26.370Z,225.00
2017-09-15T06:17:26.372Z,213.75
2017-09-15T06:18:26.373Z,208.13
2017-09-15T06:19:26.374Z,196.88
2017-09-15T06:20:26.373Z,174.38
2017-09-15T06:21:26.375Z,151.88
2017-09-15T06:22:26.373Z,140.63
2017-09-15T06:23:26.378Z,151.88
2017-09-15T06:24:26.376Z,168.75
2017-09-15T06:25:26.375Z,185.63
2017-09-15T06:26:26.395Z,208.13
2017-09-15T06:27:26.381Z,208.13
2017-09-15T06:28:26.384Z,219.38
2017-09-15T06:29:26.387Z,247.50
2017-09-15T06:30:26.378Z,286.88
2017-09-15T06:31:26.381Z,309.38
2017-09-15T06:32:26.384Z,320.63
2017-09-15T06:33:26.381Z,326.25
2017-09-15T06:34:26.382Z,315.00
2017-09-15T06:35:26.384Z,315.00
2017-09-15T06:36:26.384Z,315.00
2017-09-15T06:37:26.385Z,298.13
2017-09-15T06:38:26.386Z,292.50
2017-09-15T06:39:26.391Z,298.13
2017-09-15T06:40:26.387Z,309.38
2017-09-15T06:41:26.392Z,309.38
2017-09-15T06:42:26.389Z,309.38
2017-09-15T06:43:26.391Z,309.38
2017-09-15T06:44:26.404Z,315.00
2017-09-15T06:45:26.392Z,348.75
2017-09-15T06:46:26.393Z,354.38
2017-09-15T06:47:26.394Z,354.38
2017-09-15T06:48:26.407Z,348.75
2017-09-15T06:49:26.395Z,331.88
2017-09-15T06:50:26.425Z,320.63
2017-09-15T06:51:26.398Z,331.88
2017-09-15T06:52:26.401Z,337.50
2017-09-15T06:53:26.411Z,326.25
2017-09-15T06:54:26.403Z,320.63
2017-09-15T06:55:26.401Z,309.38
2017-09-15T06:56:26.416Z,315.00
2017-09-15T06:57:26.405Z,315.00
2017-09-15T06:58:26.407Z,298.13
2017-09-15T06:59:26.402Z,275.63
2017-09-15T07:00:26.414Z,258.75
2017-09-15T07:01:26.414Z,264.38
2017-09-15T07:02:26.411Z,275.63
2017-09-15T07:03:26.413Z,281.25
2017-09-15T07:04:26.412Z,298.13
2017-09-15T07:05:26.415Z,315.00
2017-09-15T07:06:26.416Z,326.25
2017-09-15T07:07:26.417Z,337.50
2017-09-15T07:08:26.414Z,337.50
2017-09-15T07:09:26.418Z,326.25
2017-09-15T07:10:26.421Z,298.13
2017-09-15T07:11:26.425Z,270.00
2017-09-15T07:12:26.423Z,253.13
2017-09-15T07:13:26.425Z,253.13
2017-09-15T07:14:26.426Z,264.38
2017-09-15T07:15:26.430Z,275.63
2017-09-15T07:16:26.434Z,281.25
2017-09-15T07:17:26.429Z,292.50
2017-09-15T07:18:26.431Z,303.75
2017-09-15T07:19:26.433Z,331.88
2017-09-15T07:20:26.432Z,365.63
2017-09-15T07:21:26.434Z,405.00
2017-09-15T07:22:26.431Z,444.38
2017-09-15T07:23:26.438Z,472.50
2017-09-15T07:24:26.441Z,495.00
2017-09-15T07:25:26.438Z,506.25
2017-09-15T07:26:26.440Z,511.88
2017-09-15T07:27:26.441Z,517.50
2017-09-15T07:28:26.447Z,528.75
2017-09-15T07:29:26.443Z,551.25
2017-09-15T07:30:26.445Z,556.88
2017-09-15T07:31:26.451Z,540.00
2017-09-15T07:32:26.450Z,523.13
2017-09-15T07:33:26.451Z,523.13
2017-09-15T07:34:26.453Z,545.63
2017-09-15T07:35:26.462Z,585.00
2017-09-15T07:36:26.457Z,618.75
2017-09-15T07:37:26.458Z,652.50
2017-09-15T07:38:26.459Z,652.50
2017-09-15T07:39:26.459Z,663.75
2017-09-15T07:40:26.464Z,669.38
2017-09-15T07:41:26.472Z,675.00
2017-09-15T07:42:26.479Z,652.50
2017-09-15T07:43:26.466Z,601.88
2017-09-15T07:44:26.469Z,551.25
2017-09-15T07:45:26.470Z,534.38
2017-09-15T07:46:26.476Z,545.63
2017-09-15T07:47:26.478Z,523.13
2017-09-15T07:48:26.487Z,495.00
2017-09-15T07:49:26.480Z,472.50
2017-09-15T07:50:26.483Z,455.63
2017-09-15T07:51:26.491Z,438.75
2017-09-15T07:52:26.487Z,421.88
2017-09-15T07:53:26.490Z,416.25
2017-09-15T07:54:26.495Z,421.88
2017-09-15T07:55:26.496Z,421.88
2017-09-15T07:56:26.497Z,427.50
2017-09-15T07:57:26.498Z,433.13
2017-09-15T07:58:26.499Z,433.13
2017-09-15T07:59:26.503Z,433.13
2017-09-15T08:00:26.506Z,433.13
2017-09-15T08:01:26.503Z,455.63
2017-09-15T08:02:26.514Z,478.13
2017-09-15T08:03:26.520Z,523.13
2017-09-15T08:04:26.516Z,540.00
2017-09-15T08:05:26.518Z,523.13
2017-09-15T08:06:26.533Z,528.75
2017-09-15T08:07:26.520Z,506.25
2017-09-15T08:08:26.520Z,478.13
2017-09-15T08:09:26.525Z,466.88
2017-09-15T08:10:26.525Z,511.88
2017-09-15T08:11:26.528Z,528.75
2017-09-15T08:12:26.531Z,528.75
2017-09-15T08:13:26.533Z,545.63
2017-09-15T08:14:26.532Z,568.13
2017-09-15T08:15:26.542Z,601.88
2017-09-15T08:16:26.541Z,624.38
2017-09-15T08:17:26.542Z,646.88
2017-09-15T08:18:26.548Z,624.38
2017-09-15T08:19:26.551Z,630.00
2017-09-15T08:20:26.550Z,658.13
2017-09-15T08:21:26.569Z,658.13
2017-09-15T08:22:26.556Z,663.75
2017-09-15T08:23:26.553Z,646.88
2017-09-15T08:24:26.561Z,607.50
2017-09-15T08:25:26.564Z,618.75
2017-09-15T08:26:26.566Z,613.13
2017-09-15T08:27:26.567Z,596.25
2017-09-15T08:28:26.572Z,573.75
2017-09-15T08:29:26.579Z,534.38
2017-09-15T08:30:26.578Z,511.88
2017-09-15T08:31:26.583Z,489.38
2017-09-15T08:32:26.582Z,478.13
2017-09-15T08:33:26.584Z,455.63
2017-09-15T08:34:26.588Z,444.38
2017-09-15T08:35:26.591Z,433.13
2017-09-15T08:36:26.598Z,455.63
2017-09-15T08:37:26.597Z,523.13
2017-09-15T08:38:26.608Z,590.63
2017-09-15T08:39:26.605Z,652.50
2017-09-15T08:40:26.600Z,725.63
2017-09-15T08:41:26.607Z,781.88
2017-09-15T08:42:26.609Z,855.00
2017-09-15T08:43:26.610Z,922.50
2017-09-15T08:44:26.614Z,984.38
2017-09-15T08:45:26.617Z,984.38
2017-09-15T08:46:26.619Z,866.25
2017-09-15T08:47:26.619Z,748.13
2017-09-15T08:48:26.624Z,725.63
2017-09-15T08:49:26.627Z,725.63
2017-09-15T08:50:26.627Z,742.50
2017-09-15T08:51:26.635Z,855.00
2017-09-15T08:52:26.636Z,939.38
2017-09-15T08:53:26.653Z,945.00
2017-09-15T08:54:26.641Z,877.50
2017-09-15T08:55:26.643Z,826.88
2017-09-15T08:56:26.647Z,855.00
2017-09-15T08:57:26.653Z,950.63
2017-09-15T08:58:26.655Z,961.88
2017-09-15T08:59:26.659Z,922.50
2017-09-15T09:00:26.661Z,877.50
2017-09-15T09:01:26.665Z,900.00
2017-09-15T09:02:26.670Z,956.25
2017-09-15T09:03:26.665Z,967.50
2017-09-15T09:04:26.677Z,883.13
2017-09-15T09:05:26.681Z,787.50
2017-09-15T09:06:26.680Z,793.13
2017-09-15T09:07:26.686Z,804.38
2017-09-15T09:08:26.690Z,832.50
2017-09-15T09:09:26.691Z,843.75
2017-09-15T09:10:26.695Z,821.25
2017-09-15T09:11:26.713Z,793.13
2017-09-15T09:12:26.703Z,815.63
2017-09-15T09:13:26.763Z,849.38
2017-09-15T09:14:26.710Z,866.25
2017-09-15T09:15:26.716Z,849.38
2017-09-15T09:16:26.718Z,843.75
2017-09-15T09:17:26.723Z,849.38
2017-09-15T09:18:26.726Z,883.13
2017-09-15T09:19:26.727Z,894.38
2017-09-15T09:20:26.728Z,888.75
2017-09-15T09:21:26.737Z,888.75
2017-09-15T09:22:26.738Z,900.00
2017-09-15T09:23:26.740Z,911.25
2017-09-15T09:24:26.743Z,916.88
2017-09-15T09:25:26.752Z,933.75
2017-09-15T09:26:26.755Z,933.75
2017-09-15T09:27:26.756Z,978.75
2017-09-15T09:28:26.760Z,1023.75
2017-09-15T09:29:26.805Z,1068.75
2017-09-15T09:30:26.775Z,1096.88
2017-09-15T09:31:26.773Z,1108.13
2017-09-15T09:32:26.779Z,1051.88
2017-09-15T09:33:26.781Z,1012.50
2017-09-15T09:34:26.790Z,933.75
2017-09-15T09:35:26.811Z,905.63
2017-09-15T09:36:26.816Z,877.50
2017-09-15T09:37:26.812Z,894.38
2017-09-15T09:38:26.839Z,967.50
2017-09-15T09:39:26.817Z,1023.75
2017-09-15T09:40:26.849Z,1018.13
2017-09-15T09:41:26.833Z,995.63
2017-09-15T09:42:26.823Z,1029.38
2017-09-15T09:43:26.829Z,1046.25
2017-09-15T09:44:26.838Z,961.88
2017-09-15T09:45:26.839Z,883.13
2017-09-15T09:46:26.839Z,961.88
2017-09-15T09:47:26.865Z,1035.00
2017-09-15T09:48:26.851Z,1012.50
2017-09-15T09:49:26.854Z,956.25
2017-09-15T09:50:26.857Z,888.75
2017-09-15T09:51:26.876Z,810.00
2017-09-15T09:52:26.869Z,725.63
2017-09-15T09:53:26.869Z,596.25
2017-09-15T09:54:26.888Z,534.38
2017-09-15T09:55:26.880Z,517.50
2017-09-15T09:56:26.879Z,562.50
2017-09-15T09:57:26.886Z,663.75
2017-09-15T09:58:26.897Z,759.38
2017-09-15T09:59:26.901Z,793.13
2017-09-15T10:00:26.907Z,849.38
2017-09-15T10:01:26.912Z,928.13
2017-09-15T10:02:26.913Z,984.38
2017-09-15T10:03:26.919Z,928.13
2017-09-15T10:04:26.924Z,826.88
2017-09-15T10:05:26.927Z,731.25
2017-09-15T10:06:26.932Z,720.00
2017-09-15T10:07:26.939Z,826.88
2017-09-15T10:08:26.942Z,956.25
2017-09-15T10:09:26.947Z,1063.13
2017-09-15T10:10:26.954Z,1136.25
2017-09-15T10:11:26.955Z,1141.88
2017-09-15T10:12:26.960Z,1158.75
2017-09-15T10:13:26.963Z,1164.38
2017-09-15T10:14:26.970Z,1164.38
2017-09-15T10:15:26.970Z,1170.00
2017-09-15T10:16:26.985Z,1186.88
2017-09-15T10:17:26.983Z,1192.50
2017-09-15T10:18:26.989Z,1153.13
2017-09-15T10:19:26.996Z,1102.50
2017-09-15T10:20:27.000Z,1018.13
2017-09-15T10:21:27.004Z,939.38
2017-09-15T10:22:27.006Z,928.13
2017-09-15T10:23:27.015Z,900.00
2017-09-15T10:24:27.019Z,826.88
2017-09-15T10:25:27.029Z,787.50
2017-09-15T10:26:27.027Z,793.13
2017-09-15T10:27:27.036Z,798.75
2017-09-15T10:28:27.050Z,961.88
2017-09-15T10:29:27.044Z,1085.63
2017-09-15T10:30:27.051Z,1147.50
2017-09-15T10:31:27.057Z,1175.63
2017-09-15T10:32:27.066Z,1186.88
2017-09-15T10:33:27.067Z,1130.63
2017-09-15T10:34:27.074Z,1096.88
2017-09-15T10:35:27.078Z,1102.50
2017-09-15T10:36:27.159Z,1147.50
2017-09-15T10:37:27.091Z,1091.25
2017-09-15T10:38:27.094Z,1012.50
2017-09-15T10:39:27.100Z,967.50
2017-09-15T10:40:27.106Z,1001.25
2017-09-15T10:41:27.111Z,1074.38
2017-09-15T10:42:27.118Z,1063.13
2017-09-15T10:43:27.126Z,1063.13
2017-09-15T10:44:27.131Z,1074.38
2017-09-15T10:45:27.139Z,1035.00
2017-09-15T10:46:27.140Z,1018.13
2017-09-15T10:47:27.146Z,1035.00
2017-09-15T10:48:27.160Z,1029.38
2017-09-15T10:49:27.156Z,1012.50
2017-09-15T10:50:27.163Z,1051.88
2017-09-15T10:51:27.165Z,1074.38
2017-09-15T10:52:27.177Z,1091.25
2017-09-15T10:53:27.184Z,1091.25
2017-09-15T10:54:27.183Z,1068.75
2017-09-15T10:55:27.194Z,1051.88
2017-09-15T10:56:27.199Z,1018.13
2017-09-15T10:57:27.204Z,995.63
2017-09-15T10:58:27.208Z,961.88
2017-09-15T10:59:27.244Z,945.00
2017-09-15T11:00:27.220Z,933.75
2017-09-15T11:01:27.230Z,933.75
2017-09-15T11:02:27.232Z,933.75
2017-09-15T11:03:27.236Z,883.13
2017-09-15T11:04:27.242Z,860.63
2017-09-15T11:05:27.248Z,866.25
2017-09-15T11:06:27.254Z,877.50
2017-09-15T11:07:27.259Z,888.75
2017-09-15T11:08:27.265Z,894.38
2017-09-15T11:09:27.270Z,883.13
2017-09-15T11:10:27.275Z,928.13
2017-09-15T11:11:27.280Z,945.00
2017-09-15T11:12:27.288Z,961.88
2017-09-15T11:13:27.292Z,978.75
2017-09-15T11:14:27.296Z,995.63
2017-09-15T11:15:27.303Z,1040.63
2017-09-15T11:16:27.313Z,1051.88
2017-09-15T11:17:27.316Z,1080.00
2017-09-15T11:18:27.321Z,1130.63
2017-09-15T11:19:27.326Z,1130.63
2017-09-15T11:20:27.333Z,1119.38
2017-09-15T11:21:27.337Z,1063.13
2017-09-15T11:22:27.346Z,1035.00
2017-09-15T11:23:27.349Z,1018.13
2017-09-15T11:24:27.356Z,1074.38
2017-09-15T11:25:27.373Z,1158.75
2017-09-15T11:26:27.369Z,1186.88
2017-09-15T11:27:27.386Z,1198.13
2017-09-15T11:28:27.382Z,1181.25
2017-09-15T11:29:27.385Z,1164.38
2017-09-15T11:30:27.395Z,1119.38
2017-09-15T11:31:27.408Z,1085.63
2017-09-15T11:32:27.407Z,1068.75
2017-09-15T11:33:27.411Z,1063.13
2017-09-15T11:34:27.414Z,1035.00
2017-09-15T11:35:27.421Z,1006.88
2017-09-15T11:36:27.432Z,995.63
2017-09-15T11:37:27.476Z,933.75
2017-09-15T11:38:27.444Z,894.38
2017-09-15T11:39:27.457Z,883.13
2017-09-15T11:40:27.456Z,900.00
2017-09-15T11:41:27.463Z,894.38
2017-09-15T11:42:27.469Z,967.50
2017-09-15T11:43:27.477Z,950.63
2017-09-15T11:44:27.478Z,956.25
2017-09-15T11:45:27.490Z,939.38
2017-09-15T11:46:27.496Z,860.63
2017-09-15T11:47:27.503Z,804.38
2017-09-15T11:48:27.506Z,731.25
2017-09-15T11:49:27.514Z,686.25
2017-09-15T11:50:27.522Z,691.88
2017-09-15T11:51:27.527Z,686.25
2017-09-15T11:52:27.536Z,703.13
2017-09-15T11:53:27.541Z,697.50
2017-09-15T11:54:27.549Z,731.25
2017-09-15T11:55:27.552Z,770.63
2017-09-15T11:56:27.561Z,843.75
2017-09-15T11:57:27.564Z,900.00
2017-09-15T11:58:27.572Z,945.00
2017-09-15T11:59:27.578Z,1001.25
2017-09-15T12:00:27.583Z,1023.75
2017-09-15T12:01:27.590Z,1023.75
2017-09-15T12:02:27.601Z,973.13
2017-09-15T12:03:27.600Z,928.13
2017-09-15T12:04:27.612Z,911.25
2017-09-15T12:05:27.610Z,877.50
2017-09-15T12:06:27.617Z,843.75
2017-09-15T12:07:27.622Z,838.13
2017-09-15T12:08:27.632Z,855.00
2017-09-15T12:09:27.642Z,855.00
2017-09-15T12:10:27.640Z,855.00
2017-09-15T12:11:27.657Z,877.50
2017-09-15T12:12:27.652Z,900.00
2017-09-15T12:13:27.661Z,945.00
2017-09-15T12:14:27.670Z,978.75
2017-09-15T12:15:27.672Z,961.88
2017-09-15T12:16:27.679Z,888.75
2017-09-15T12:17:27.686Z,866.25
2017-09-15T12:18:27.691Z,832.50
2017-09-15T12:19:27.697Z,787.50
2017-09-15T12:20:27.712Z,770.63
2017-09-15T12:21:27.708Z,781.88
2017-09-15T12:22:27.762Z,748.13
2017-09-15T12:23:27.725Z,759.38
2017-09-15T12:24:27.729Z,804.38
2017-09-15T12:25:27.731Z,798.75
2017-09-15T12:26:27.737Z,793.13
2017-09-15T12:27:27.743Z,776.25
2017-09-15T12:28:27.746Z,815.63
2017-09-15T12:29:27.753Z,832.50
2017-09-15T12:30:27.757Z,815.63
2017-09-15T12:31:27.766Z,810.00
2017-09-15T12:32:27.769Z,832.50
2017-09-15T12:33:27.794Z,871.88
2017-09-15T12:34:27.786Z,916.88
2017-09-15T12:35:27.791Z,973.13
2017-09-15T12:36:27.798Z,1018.13
2017-09-15T12:37:27.792Z,967.50
2017-09-15T12:38:27.803Z,894.38
2017-09-15T12:39:27.818Z,810.00
2017-09-15T12:40:27.833Z,686.25
2017-09-15T12:41:27.818Z,652.50
2017-09-15T12:42:27.848Z,630.00
2017-09-15T12:43:27.833Z,652.50
2017-09-15T12:44:27.849Z,697.50
2017-09-15T12:45:27.847Z,658.13